Terminal Aerodrome Forecast
Issued by NWS Albany, NY

Home | Current Version | Previous Version | Text Only | Print | Product List | Glossary On
Versions: 1 2 3 4 5 6 7 8 9 10 11 12 13 14 15 16 17 18 19
000
FTUS41 KALY 162345
TAFPOU
TAF
KPOU 162345Z 1700/1724 00000KT 2SM -SN BR OVC020
      TEMPO 1700/1704 3/4SM -SN BR BKN008
     FM170400 00000KT 3/4SM -SN VV008
     FM170700 00000KT 1/2SM -SN FG VV006
     FM171200 35004KT 1 1/2SM -SN SCT006 OVC012
     FM171400 32006KT 5SM -SN BR SCT012 OVC025
     FM171800 31010G16KT P6SM SCT025 OVC040=

USA.gov is the U.S. government's official web portal to all federal, state and local government web resources and services.